Time;durP1;ratioP1;P1;durP2;ratioP2;P2;SDS_P1;SDS_P2;PMS_P1;PMS_P2;Temp;Humidity;BMP_temperature;BMP_pressure;BME280_temperature;BME280_humidity;BME280_pressure;Samples;Min_cycle;Max_cycle;Signal;HPM_P1;HPM_P2
2022/10/20 00:00:25;;;;;;;25.33;4.60;;;;;;;13.37;100.00;99417.50;4989578;28;20034;-93
2022/10/20 00:02:51;;;;;;;35.83;5.65;;;;;;;13.34;100.00;99409.91;5004265;28;20037;-93
2022/10/20 00:05:17;;;;;;;26.50;5.45;;;;;;;13.33;100.00;99413.56;5013484;28;20033;-94
2022/10/20 00:07:45;;;;;;;22.30;5.00;;;;;;;13.26;100.00;99405.56;4993357;28;20045;-93
2022/10/20 00:10:16;;;;;;;21.80;4.60;;;;;;;13.26;100.00;99410.84;5024695;28;20036;-95
2022/10/20 00:12:44;;;;;;;27.35;4.65;;;;;;;13.22;100.00;99420.19;4992425;28;20106;-94
2022/10/20 00:15:10;;;;;;;24.70;4.50;;;;;;;13.22;100.00;99420.19;4983081;28;20470;-93
2022/10/20 00:17:36;;;;;;;24.23;4.85;;;;;;;13.23;100.00;99427.16;5010822;28;20052;-94
2022/10/20 00:20:03;;;;;;;37.58;5.78;;;;;;;13.22;100.00;99428.16;4991976;28;20377;-94
2022/10/20 00:22:30;;;;;;;21.65;4.68;;;;;;;13.19;100.00;99420.56;4991907;28;20039;-93
2022/10/20 00:24:59;;;;;;;23.15;4.18;;;;;;;13.21;100.00;99428.34;4998628;28;20036;-92
2022/10/20 00:27:24;;;;;;;31.55;5.22;;;;;;;13.18;100.00;99432.19;5011599;28;20030;-92
2022/10/20 00:29:51;;;;;;;34.30;4.82;;;;;;;13.12;100.00;99435.59;4978887;28;20032;-93
2022/10/20 00:32:16;;;;;;;27.25;5.32;;;;;;;13.14;100.00;99447.66;5014442;28;20073;-93
2022/10/20 00:34:42;;;;;;;26.60;4.65;;;;;;;13.12;100.00;99441.69;4994733;28;20025;-92
2022/10/20 00:37:08;;;;;;;35.92;5.70;;;;;;;13.15;100.00;99436.03;4992883;28;20038;-92
2022/10/20 00:39:34;;;;;;;29.15;5.60;;;;;;;13.11;100.00;99442.72;5003508;28;20547;-93
2022/10/20 00:42:03;;;;;;;42.97;6.22;;;;;;;13.09;100.00;99441.28;5012967;28;20030;-93
2022/10/20 00:44:52;;;;;;;26.38;5.15;;;;;;;13.03;100.00;99443.66;5026564;28;20358;-92
2022/10/20 00:47:27;;;;;;;31.70;4.57;;;;;;;13.00;100.00;99445.84;5005563;28;20036;-92
2022/10/20 00:49:56;;;;;;;43.75;6.13;;;;;;;12.93;100.00;99434.34;5006955;28;20044;-92
2022/10/20 00:52:24;;;;;;;35.70;6.00;;;;;;;12.96;100.00;99441.94;5021788;28;20083;-92
2022/10/20 00:54:49;;;;;;;29.55;4.70;;;;;;;12.95;100.00;99445.59;4999143;28;20033;-93
2022/10/20 00:57:16;;;;;;;37.45;5.00;;;;;;;12.90;100.00;99438.16;4986564;28;20039;-93
2022/10/20 00:59:42;;;;;;;32.00;5.15;;;;;;;12.90;100.00;99454.06;4982529;28;20142;-93
2022/10/20 01:02:09;;;;;;;39.10;5.30;;;;;;;12.90;100.00;99456.72;4989230;28;20040;-93
2022/10/20 01:04:36;;;;;;;37.35;5.63;;;;;;;12.85;100.00;99451.19;5019485;28;20021;-91
2022/10/20 01:07:02;;;;;;;39.33;6.43;;;;;;;12.79;100.00;99439.47;4978826;28;20562;-92
2022/10/20 01:09:29;;;;;;;31.80;5.40;;;;;;;12.69;100.00;99431.81;4997542;28;20033;-92
2022/10/20 01:12:06;;;;;;;34.95;5.38;;;;;;;12.68;100.00;99424.03;5015615;28;20466;-90
2022/10/20 01:14:50;;;;;;;38.90;5.30;;;;;;;12.68;100.00;99424.84;4981266;28;20481;-92
2022/10/20 01:17:39;;;;;;;34.22;4.45;;;;;;;12.59;100.00;99424.13;5002219;28;20038;-92
2022/10/20 01:20:25;;;;;;;39.13;5.10;;;;;;;12.58;100.00;99424.31;4987923;28;20029;-91
2022/10/20 01:23:22;;;;;;;37.40;4.85;;;;;;;12.54;100.00;99415.88;5021223;28;20040;-92
2022/10/20 01:26:06;;;;;;;30.10;4.93;;;;;;;12.46;100.00;99422.09;5000117;28;20100;-92
2022/10/20 01:28:45;;;;;;;35.95;4.43;;;;;;;12.39;100.00;99423.84;5001464;28;20060;-90
2022/10/20 01:31:21;;;;;;;28.77;4.00;;;;;;;12.39;100.00;99429.16;4981509;28;20033;-91
2022/10/20 01:33:57;;;;;;;29.85;4.88;;;;;;;12.42;100.00;99436.72;5017472;28;20478;-92
2022/10/20 01:36:50;;;;;;;37.92;4.57;;;;;;;12.42;100.00;99438.53;5000701;28;20040;-93
2022/10/20 01:39:23;;;;;;;35.55;4.07;;;;;;;12.43;100.00;99427.75;4973290;28;20071;-92
2022/10/20 01:41:53;;;;;;;28.20;4.72;;;;;;;12.49;100.00;99437.63;5009295;28;20037;-92
2022/10/20 01:44:23;;;;;;;28.10;3.85;;;;;;;12.55;100.00;99438.72;5007673;28;20044;-92
2022/10/20 01:46:49;;;;;;;30.85;3.90;;;;;;;12.53;100.00;99422.19;5004697;28;20532;-93
2022/10/20 01:49:15;;;;;;;25.27;4.22;;;;;;;12.53;100.00;99414.25;5005363;28;20037;-93
2022/10/20 01:51:41;;;;;;;33.40;4.25;;;;;;;12.58;100.00;99421.66;4988724;28;20029;-92
2022/10/20 01:54:22;;;;;;;26.30;3.85;;;;;;;12.56;100.00;99421.00;4979987;28;20033;-93
2022/10/20 01:57:26;;;;;;;21.92;3.72;;;;;;;12.55;100.00;99411.41;4994297;28;20022;-94
2022/10/20 02:00:04;;;;;;;24.85;3.58;;;;;;;12.53;100.00;99407.09;4979550;28;20037;-94
2022/10/20 02:03:05;;;;;;;36.17;4.38;;;;;;;12.51;100.00;99403.84;5017448;28;20106;-93
2022/10/20 02:05:56;;;;;;;30.17;3.55;;;;;;;12.52;100.00;99405.47;5000005;28;20030;-93
2022/10/20 02:08:27;;;;;;;24.10;3.22;;;;;;;12.49;100.00;99397.03;4999213;28;20139;-93
2022/10/20 02:10:57;;;;;;;27.83;3.92;;;;;;;12.52;100.00;99405.47;5010898;28;20033;-92
2022/10/20 02:13:26;;;;;;;32.08;3.97;;;;;;;12.53;100.00;99406.31;4982877;28;20033;-93
2022/10/20 02:15:55;;;;;;;28.25;4.15;;;;;;;12.56;100.00;99405.94;5014582;28;20107;-92
2022/10/20 02:18:35;;;;;;;22.83;3.80;;;;;;;12.60;100.00;99411.66;5013081;28;20054;-91
2022/10/20 02:21:03;;;;;;;28.00;3.50;;;;;;;12.56;100.00;99407.75;5043208;28;20068;-93
2022/10/20 02:23:30;;;;;;;35.38;3.20;;;;;;;12.59;100.00;99407.38;5055638;28;20045;-94
2022/10/20 02:26:07;;;;;;;22.73;3.50;;;;;;;12.56;100.00;99413.06;5042287;28;20044;-96
2022/10/20 02:28:36;;;;;;;23.27;3.33;;;;;;;12.57;100.00;99417.34;5022963;28;20350;-92
2022/10/20 02:31:03;;;;;;;24.45;3.15;;;;;;;12.56;100.00;99408.59;5025928;28;20037;-92
2022/10/20 02:33:37;;;;;;;24.88;3.35;;;;;;;12.55;100.00;99406.91;5037182;28;20040;-95
2022/10/20 02:36:11;;;;;;;21.23;3.28;;;;;;;12.57;100.00;99404.09;5050189;28;20036;-93
2022/10/20 02:39:02;;;;;;;22.38;3.50;;;;;;;12.56;100.00;99408.59;5028685;28;20094;-95
2022/10/20 02:41:29;;;;;;;18.75;3.20;;;;;;;12.53;100.00;99403.66;5050173;28;20035;-96
2022/10/20 02:43:56;;;;;;;28.83;3.20;;;;;;;12.56;100.00;99415.69;5034343;28;20033;-94
2022/10/20 02:46:22;;;;;;;28.27;3.33;;;;;;;12.50;100.00;99412.75;5019372;28;20028;-94
2022/10/20 02:48:50;;;;;;;24.70;3.53;;;;;;;12.47;100.00;99407.03;5029028;28;20036;-96
2022/10/20 02:51:16;;;;;;;16.85;3.00;;;;;;;12.43;100.00;99395.13;5025775;28;20024;-93
2022/10/20 02:53:44;;;;;;;20.00;3.45;;;;;;;12.40;100.00;99391.88;5047541;28;20058;-94
2022/10/20 02:56:21;;;;;;;28.50;3.28;;;;;;;12.38;100.00;99387.72;5080596;28;20025;-93
2022/10/20 02:58:55;;;;;;;32.65;3.85;;;;;;;12.39;100.00;99384.09;5045010;28;20468;-94
2022/10/20 03:01:23;;;;;;;19.15;2.83;;;;;;;12.35;100.00;99386.28;5047315;28;20498;-94
2022/10/20 03:03:57;;;;;;;24.92;3.17;;;;;;;12.33;100.00;99371.53;5029795;28;20036;-94
2022/10/20 03:06:23;;;;;;;26.25;3.47;;;;;;;12.35;100.00;99369.53;5039620;28;20025;-94
2022/10/20 03:08:49;;;;;;;24.67;3.50;;;;;;;12.38;100.00;99375.31;5025252;28;20594;-92
2022/10/20 03:11:21;;;;;;;24.17;3.60;;;;;;;12.35;100.00;99380.16;5033693;28;20242;-95
2022/10/20 03:13:50;;;;;;;33.43;4.77;;;;;;;12.31;100.00;99374.38;5038926;28;20032;-95
2022/10/20 03:16:18;;;;;;;21.30;2.92;;;;;;;12.34;100.00;99373.22;5010974;28;20484;-94
2022/10/20 03:18:44;;;;;;;26.58;3.53;;;;;;;12.31;100.00;99374.38;5046357;28;20031;-94
2022/10/20 03:21:11;;;;;;;25.60;3.45;;;;;;;12.27;100.00;99365.16;5027239;28;20036;-94
2022/10/20 03:23:37;;;;;;;26.17;3.38;;;;;;;12.31;100.00;99368.28;5042260;28;20039;-94
2022/10/20 03:26:04;;;;;;;38.17;3.53;;;;;;;12.30;100.00;99359.50;5040987;28;20021;-92
2022/10/20 03:28:31;;;;;;;26.50;2.92;;;;;;;12.26;100.00;99348.44;5022395;28;20123;-94
2022/10/20 03:30:57;;;;;;;26.65;3.58;;;;;;;12.26;100.00;99358.22;5049789;28;20112;-92
2022/10/20 03:33:23;;;;;;;29.25;3.25;;;;;;;12.22;100.00;99355.13;5050213;28;20500;-93
2022/10/20 03:35:49;;;;;;;30.67;3.75;;;;;;;12.20;100.00;99358.97;5058310;28;20037;-96
2022/10/20 03:38:22;;;;;;;24.52;3.95;;;;;;;12.21;100.00;99361.44;5053844;28;20031;-96
2022/10/20 03:40:57;;;;;;;26.67;3.25;;;;;;;12.19;100.00;99358.13;5050600;28;20121;-94
2022/10/20 03:43:23;;;;;;;34.13;4.25;;;;;;;12.22;100.00;99373.66;5054555;28;20024;-93
2022/10/20 03:45:49;;;;;;;27.70;3.88;;;;;;;12.20;100.00;99374.84;5042327;28;20357;-93
2022/10/20 03:48:15;;;;;;;26.48;3.13;;;;;;;12.24;100.00;99386.72;5025051;28;20393;-91
2022/10/20 03:50:42;;;;;;;32.45;4.57;;;;;;;12.19;100.00;99381.13;5044843;28;20043;-93
2022/10/20 03:53:11;;;;;;;27.90;4.47;;;;;;;12.25;100.00;99394.50;5039230;28;20036;-92
2022/10/20 03:55:37;;;;;;;29.95;3.58;;;;;;;12.22;100.00;99392.19;5042093;28;20032;-92
2022/10/20 03:58:03;;;;;;;29.75;3.30;;;;;;;12.25;100.00;99396.31;5051104;28;20383;-93
2022/10/20 04:00:29;;;;;;;29.75;3.47;;;;;;;12.25;100.00;99399.78;5021206;28;20044;-93
2022/10/20 04:02:54;;;;;;;29.23;3.65;;;;;;;12.30;100.00;99409.84;5040190;28;20066;-92
2022/10/20 04:05:21;;;;;;;25.00;3.38;;;;;;;12.35;100.00;99404.00;5025205;28;20365;-92
2022/10/20 04:07:47;;;;;;;23.88;3.67;;;;;;;12.36;100.00;99395.88;5040593;28;20065;-93
2022/10/20 04:10:15;;;;;;;32.15;3.58;;;;;;;12.45;100.00;99404.56;5045837;28;20087;-92
2022/10/20 04:12:41;;;;;;;18.08;2.78;;;;;;;12.47;100.00;99407.03;5033184;28;20067;-94
2022/10/20 04:15:08;;;;;;;24.63;2.50;;;;;;;12.49;100.00;99400.53;5041756;28;20059;-94
2022/10/20 04:17:35;;;;;;;24.25;3.00;;;;;;;12.51;100.00;99401.19;5038331;28;20456;-93
2022/10/20 04:20:03;;;;;;;24.45;2.83;;;;;;;12.50;100.00;99396.88;5047738;28;20472;-92
2022/10/20 04:22:29;;;;;;;26.35;3.20;;;;;;;12.49;100.00;99397.88;5023369;28;20035;-94
2022/10/20 04:24:54;;;;;;;30.52;3.22;;;;;;;12.52;100.00;99397.50;5063053;28;20464;-94
2022/10/20 04:27:20;;;;;;;29.30;3.42;;;;;;;12.56;100.00;99405.09;5017991;28;20032;-93
2022/10/20 04:29:47;;;;;;;31.00;2.88;;;;;;;12.58;100.00;99389.84;5031424;28;20032;-94
2022/10/20 04:32:12;;;;;;;31.23;4.22;;;;;;;12.59;100.00;99397.63;5040616;28;20028;-93
2022/10/20 04:34:38;;;;;;;22.52;3.40;;;;;;;12.59;100.00;99391.47;5054732;28;20036;-94
2022/10/20 04:37:04;;;;;;;21.30;3.50;;;;;;;12.63;100.00;99384.78;5047094;28;20073;-93
2022/10/20 04:39:30;;;;;;;29.33;3.20;;;;;;;12.63;100.00;99390.09;5019846;28;20048;-93
2022/10/20 04:41:57;;;;;;;27.98;3.25;;;;;;;12.64;100.00;99389.94;5068372;28;20031;-94
2022/10/20 04:44:22;;;;;;;22.05;2.83;;;;;;;12.60;100.00;99386.00;5032345;28;20050;-91
2022/10/20 04:46:48;;;;;;;27.63;3.88;;;;;;;12.62;100.00;99381.34;5033370;28;20037;-92
2022/10/20 04:49:14;;;;;;;32.97;3.38;;;;;;;12.64;100.00;99381.16;5039221;28;20029;-92
2022/10/20 04:51:40;;;;;;;29.13;3.22;;;;;;;12.61;100.00;99374.38;5052073;28;20174;-93
2022/10/20 04:54:08;;;;;;;33.03;3.85;;;;;;;12.61;100.00;99370.91;5033457;28;20037;-93
2022/10/20 04:56:34;;;;;;;30.58;3.03;;;;;;;12.63;100.00;99379.50;5028944;28;20082;-93
2022/10/20 04:59:02;;;;;;;22.98;3.30;;;;;;;12.63;100.00;99376.84;5048800;28;20028;-92
2022/10/20 05:01:29;;;;;;;32.80;3.30;;;;;;;12.61;100.00;99362.97;5034711;28;20028;-89
2022/10/20 05:03:55;;;;;;;25.10;2.78;;;;;;;12.60;100.00;99356.00;5031346;28;20032;-93
2022/10/20 05:06:26;;;;;;;32.95;3.15;;;;;;;12.61;100.00;99344.41;5026654;28;20107;-93
2022/10/20 05:08:54;;;;;;;37.17;3.10;;;;;;;12.64;100.00;99355.47;5042895;28;20028;-94
2022/10/20 05:11:22;;;;;;;32.03;3.60;;;;;;;12.67;100.00;99367.53;5051589;28;20052;-92
2022/10/20 05:13:48;;;;;;;41.92;4.32;;;;;;;12.63;100.00;99358.28;5027373;28;20024;-94
2022/10/20 05:16:16;;;;;;;39.08;3.58;;;;;;;12.69;100.00;99370.00;5033838;28;20027;-93
2022/10/20 05:18:43;;;;;;;35.78;4.13;;;;;;;12.69;100.00;99349.63;5039212;28;20059;-91
2022/10/20 05:21:12;;;;;;;30.52;3.55;;;;;;;12.72;100.00;99346.59;5023664;28;20029;-91
2022/10/20 05:23:38;;;;;;;32.67;3.67;;;;;;;12.70;100.00;99339.81;5023216;28;20020;-92
2022/10/20 05:26:07;;;;;;;34.63;3.80;;;;;;;12.77;100.00;99348.69;5027411;28;20028;-92
2022/10/20 05:28:33;;;;;;;46.13;3.85;;;;;;;12.74;100.00;99327.84;5023309;28;20032;-92
2022/10/20 05:31:06;;;;;;;35.13;3.50;;;;;;;12.81;100.00;99333.19;5043425;28;20074;-92
2022/10/20 05:33:33;;;;;;;21.83;2.70;;;;;;;12.78;100.00;99318.50;5056100;28;20046;-93
2022/10/20 05:35:59;;;;;;;42.22;4.63;;;;;;;12.80;100.00;99326.28;5038578;28;20043;-93
2022/10/20 05:38:24;;;;;;;35.33;3.38;;;;;;;12.78;100.00;99337.06;5019360;28;20041;-92
2022/10/20 05:40:50;;;;;;;31.20;2.63;;;;;;;12.73;100.00;99329.66;5026888;28;20044;-92
2022/10/20 05:43:16;;;;;;;29.00;2.60;;;;;;;12.71;100.00;99322.91;5039742;28;20052;-92
2022/10/20 05:45:42;;;;;;;41.30;3.42;;;;;;;12.77;100.00;99336.22;5037410;28;20081;-92
2022/10/20 05:48:08;;;;;;;27.42;2.30;;;;;;;12.76;100.00;99328.47;5022733;28;20040;-93
2022/10/20 05:50:33;;;;;;;26.65;2.83;;;;;;;12.75;100.00;99327.66;5035978;28;20531;-92
2022/10/20 05:52:59;;;;;;;23.63;2.30;;;;;;;12.70;100.00;99319.44;5027907;28;20028;-92
2022/10/20 05:55:25;;;;;;;24.27;2.42;;;;;;;12.67;100.00;99319.81;5058663;28;20086;-92
2022/10/20 05:57:51;;;;;;;35.65;3.58;;;;;;;12.62;100.00;99323.03;5022215;28;20055;-91
2022/10/20 06:00:28;;;;;;;33.78;3.47;;;;;;;12.57;100.00;99329.88;5039006;28;20043;-91
2022/10/20 06:02:54;;;;;;;21.42;2.30;;;;;;;12.51;100.00;99323.50;5053457;28;20024;-92
2022/10/20 06:05:19;;;;;;;27.50;3.00;;;;;;;12.50;100.00;99320.00;5019735;28;20172;-92
2022/10/20 06:07:45;;;;;;;26.00;3.35;;;;;;;12.51;100.00;99313.72;5037827;28;20423;-92
2022/10/20 06:10:11;;;;;;;22.23;2.67;;;;;;;12.47;100.00;99323.03;5021399;28;20037;-93
2022/10/20 06:12:37;;;;;;;20.98;2.53;;;;;;;12.49;100.00;99325.50;5022655;28;20028;-92
2022/10/20 06:15:03;;;;;;;32.08;3.50;;;;;;;12.45;100.00;99327.72;5038200;28;20033;-92
2022/10/20 06:17:29;;;;;;;28.23;3.88;;;;;;;12.46;100.00;99318.75;5033593;28;20048;-92
2022/10/20 06:19:55;;;;;;;32.03;3.05;;;;;;;12.45;100.00;99324.22;5038716;28;20587;-91
2022/10/20 06:22:21;;;;;;;29.83;3.35;;;;;;;12.46;100.00;99326.69;5019920;28;20060;-92
2022/10/20 06:24:46;;;;;;;34.75;3.40;;;;;;;12.50;100.00;99329.81;5032749;28;20372;-92
2022/10/20 06:27:12;;;;;;;32.72;3.78;;;;;;;12.53;100.00;99327.59;5020494;28;20040;-91
2022/10/20 06:29:38;;;;;;;26.63;2.53;;;;;;;12.51;100.00;99312.88;5052075;28;20037;-91
2022/10/20 06:32:04;;;;;;;27.50;2.65;;;;;;;12.61;100.00;99331.16;5024173;28;20028;-91
2022/10/20 06:34:30;;;;;;;29.20;2.90;;;;;;;12.64;100.00;99328.97;5036849;28;20035;-91
2022/10/20 06:36:56;;;;;;;25.52;3.10;;;;;;;12.65;100.00;99340.38;5021895;28;20468;-92
2022/10/20 06:39:22;;;;;;;25.13;2.58;;;;;;;12.63;100.00;99329.94;5021836;28;20118;-91
2022/10/20 06:41:50;;;;;;;29.88;2.90;;;;;;;12.56;100.00;99334.38;5020569;28;20036;-92
2022/10/20 06:44:21;;;;;;;30.00;2.65;;;;;;;12.60;100.00;99342.75;5066823;28;20028;-92
2022/10/20 06:46:48;;;;;;;24.88;2.38;;;;;;;12.57;100.00;99327.22;5018431;28;20029;-91
2022/10/20 06:49:13;;;;;;;29.35;3.20;;;;;;;12.59;100.00;99341.94;5036948;28;20475;-91
2022/10/20 06:51:40;;;;;;;25.42;3.45;;;;;;;12.59;100.00;99341.13;5064088;28;20078;-91
2022/10/20 06:54:06;;;;;;;29.42;3.67;;;;;;;12.55;100.00;99350.44;5015932;28;20492;-91
2022/10/20 06:56:34;;;;;;;20.77;2.75;;;;;;;12.53;100.00;99340.03;5029312;28;20078;-92
2022/10/20 06:59:02;;;;;;;24.92;3.20;;;;;;;12.54;100.00;99344.31;5030611;28;20075;-92
2022/10/20 07:01:31;;;;;;;31.95;3.70;;;;;;;12.54;100.00;99341.66;5014930;28;20677;-92
2022/10/20 07:04:00;;;;;;;30.08;3.33;;;;;;;12.54;100.00;99339.00;5028712;28;20031;-92
2022/10/20 07:06:36;;;;;;;30.85;2.40;;;;;;;12.53;100.00;99340.03;5011394;28;20423;-91
2022/10/20 07:09:06;;;;;;;27.77;3.15;;;;;;;12.56;100.00;99334.38;5038806;28;20032;-91
2022/10/20 07:11:41;;;;;;;22.15;2.65;;;;;;;12.57;100.00;99324.56;5036402;28;20033;-92
2022/10/20 07:14:12;;;;;;;20.65;2.25;;;;;;;12.64;100.00;99330.78;5011738;28;20058;-91
2022/10/20 07:16:37;;;;;;;20.92;2.78;;;;;;;12.65;100.00;99324.47;5020277;28;20032;-92
2022/10/20 07:19:04;;;;;;;17.88;2.30;;;;;;;12.67;100.00;99319.81;5021615;28;20040;-91
2022/10/20 07:21:30;;;;;;;24.80;3.38;;;;;;;12.66;100.00;99318.16;5014221;28;20039;-91
2022/10/20 07:23:59;;;;;;;24.30;3.40;;;;;;;12.66;100.00;99312.88;5011836;28;20449;-91
2022/10/20 07:26:28;;;;;;;28.45;3.28;;;;;;;12.72;100.00;99306.81;5035902;28;20035;-91
2022/10/20 07:28:56;;;;;;;34.10;3.63;;;;;;;12.73;100.00;99305.81;5037929;28;20028;-90
2022/10/20 07:31:25;;;;;;;30.70;3.22;;;;;;;12.74;100.00;99291.53;5020023;28;20033;-92
2022/10/20 07:33:52;;;;;;;29.98;3.17;;;;;;;12.75;100.00;99295.00;5017970;28;20476;-91
2022/10/20 07:36:24;;;;;;;28.63;3.47;;;;;;;12.76;100.00;99302.78;5018676;28;20091;-91
2022/10/20 07:38:55;;;;;;;30.10;3.45;;;;;;;12.74;100.00;99304.78;5037327;28;20345;-91
2022/10/20 07:41:21;;;;;;;26.23;3.28;;;;;;;12.73;100.00;99295.19;5034875;28;20040;-92
2022/10/20 07:43:47;;;;;;;27.38;3.35;;;;;;;12.77;100.00;99306.25;5036464;28;20025;-91
2022/10/20 07:46:14;;;;;;;23.90;3.00;;;;;;;12.81;100.00;99304.88;5054656;28;20036;-91
2022/10/20 07:48:40;;;;;;;32.33;3.40;;;;;;;12.89;100.00;99309.22;5019881;28;20032;-92
2022/10/20 07:51:13;;;;;;;33.78;3.17;;;;;;;12.94;100.00;99309.50;5037716;28;20033;-92
2022/10/20 07:53:38;;;;;;;36.28;4.25;;;;;;;12.95;100.00;99319.09;5021124;28;20083;-92
2022/10/20 07:56:08;;;;;;;33.85;3.75;;;;;;;12.97;100.00;99310.94;5040886;28;20055;-91
2022/10/20 07:58:34;;;;;;;25.63;3.03;;;;;;;12.99;100.00;99317.72;5022413;28;20452;-91
2022/10/20 08:01:00;;;;;;;33.53;3.45;;;;;;;13.00;100.00;99322.00;5053684;28;20032;-92
2022/10/20 08:03:26;;;;;;;32.42;3.22;;;;;;;12.99;100.00;99325.69;5037343;28;20048;-94
2022/10/20 08:05:53;;;;;;;29.55;3.67;;;;;;;12.94;100.00;99314.81;5060665;28;20090;-94
2022/10/20 08:08:22;;;;;;;36.15;3.28;;;;;;;12.93;100.00;99317.63;5016727;28;20029;-94
2022/10/20 08:10:48;;;;;;;25.40;2.78;;;;;;;12.91;100.00;99317.84;5029408;28;20081;-95
2022/10/20 08:13:14;;;;;;;24.25;3.92;;;;;;;12.93;100.00;99317.63;5040134;28;20115;-92
2022/10/20 08:15:40;;;;;;;29.10;3.83;;;;;;;12.92;100.00;99318.63;5041623;28;20603;-94
2022/10/20 08:18:06;;;;;;;28.77;3.42;;;;;;;12.93;100.00;99307.88;5021251;28;20045;-94
2022/10/20 08:20:32;;;;;;;43.50;3.95;;;;;;;12.90;100.00;99302.91;5036420;28;20028;-93
2022/10/20 08:22:58;;;;;;;25.15;2.83;;;;;;;13.00;100.00;99321.16;5024327;28;20039;-93
2022/10/20 08:25:25;;;;;;;21.67;2.88;;;;;;;12.99;100.00;99317.72;5046764;28;20028;-95
2022/10/20 08:27:51;;;;;;;29.17;3.40;;;;;;;13.04;100.00;99327.75;5032506;28;20032;-92
2022/10/20 08:30:17;;;;;;;34.58;3.95;;;;;;;13.18;100.00;99330.53;5053753;28;20116;-94
2022/10/20 08:32:42;;;;;;;25.20;3.47;;;;;;;13.29;100.00;99330.03;5038267;28;20031;-93
2022/10/20 08:35:08;;;;;;;30.85;3.75;;;;;;;13.35;100.00;99326.63;5031002;28;20909;-92
2022/10/20 08:37:35;;;;;;;37.83;4.40;;;;;;;13.41;100.00;99327.69;5032454;28;20031;-92
2022/10/20 08:40:05;;;;;;;24.30;4.05;;;;;;;13.43;100.00;99327.50;5039646;28;20025;-92
2022/10/20 08:42:43;;;;;;;28.35;4.50;;;;;;;13.45;100.00;99336.09;5036055;28;20032;-92
2022/10/20 08:45:14;;;;;;;35.55;3.90;;;;;;;13.43;100.00;99332.78;5033611;28;20033;-92
2022/10/20 08:47:40;;;;;;;25.58;3.53;;;;;;;13.42;100.00;99334.66;5041830;28;20028;-93
2022/10/20 08:50:11;;;;;;;27.58;4.25;;;;;;;13.42;100.00;99332.00;5034864;28;20056;-92
2022/10/20 08:52:40;;;;;;;27.00;4.03;;;;;;;13.41;100.00;99322.38;5020559;28;20545;-91
2022/10/20 08:55:06;;;;;;;27.15;3.42;;;;;;;13.39;100.00;99321.75;5042604;28;20055;-92
2022/10/20 08:57:34;;;;;;;35.00;3.90;;;;;;;13.38;100.00;99314.78;5039327;28;20021;-92
2022/10/20 09:00:14;;;;;;;26.90;3.17;;;;;;;13.40;100.00;99323.41;5039500;28;20051;-92
2022/10/20 09:02:40;;;;;;;22.77;3.72;;;;;;;13.39;100.00;99319.09;5052494;28;20495;-91
2022/10/20 09:05:09;;;;;;;26.02;3.30;;;;;;;13.46;100.00;99327.94;5020495;28;20037;-91
2022/10/20 09:07:37;;;;;;;32.25;3.28;;;;;;;13.44;100.00;99316.69;5040837;28;20060;-92
2022/10/20 09:10:20;;;;;;;28.23;3.42;;;;;;;13.50;100.00;99317.75;5046059;28;20058;-93
2022/10/20 09:12:48;;;;;;;33.53;3.70;;;;;;;13.50;100.00;99321.28;5039996;28;20130;-92
2022/10/20 09:15:16;;;;;;;30.90;3.75;;;;;;;13.52;100.00;99313.13;5031032;28;20036;-92
2022/10/20 09:17:45;;;;;;;23.60;3.03;;;;;;;13.50;100.00;99310.66;5034403;28;20078;-92
2022/10/20 09:20:43;;;;;;;27.77;3.60;;;;;;;13.52;100.00;99321.88;5051534;28;20473;-92
2022/10/20 09:23:13;;;;;;;26.52;3.15;;;;;;;13.48;100.00;99317.13;5016950;28;20040;-92
2022/10/20 09:25:41;;;;;;;32.67;3.60;;;;;;;13.51;100.00;99319.44;5014281;28;20831;-91
2022/10/20 09:28:20;;;;;;;27.65;3.45;;;;;;;13.52;100.00;99318.44;5036829;28;20036;-91
2022/10/20 09:30:46;;;;;;;35.30;3.90;;;;;;;13.51;100.00;99306.97;5020980;28;20043;-91
2022/10/20 09:33:29;;;;;;;31.55;4.07;;;;;;;13.52;100.00;99311.28;5018588;28;20032;-92
2022/10/20 09:36:03;;;;;;;34.97;4.70;;;;;;;13.53;100.00;99304.13;5030615;28;20028;-93
2022/10/20 09:38:33;;;;;;;31.48;3.60;;;;;;;13.54;100.00;99307.63;5055389;28;20028;-91
2022/10/20 09:41:17;;;;;;;27.70;3.75;;;;;;;13.49;100.00;99300.22;5021642;28;20167;-91
2022/10/20 09:44:06;;;;;;;34.30;4.30;;;;;;;13.49;100.00;99306.31;5014188;28;20033;-90
2022/10/20 09:46:45;;;;;;;25.60;3.17;;;;;;;13.51;100.00;99314.94;5023858;28;20468;-92
2022/10/20 09:49:21;;;;;;;20.58;3.35;;;;;;;13.51;100.00;99306.97;5021233;28;20040;-92
2022/10/20 09:51:48;;;;;;;21.40;3.35;;;;;;;13.55;100.00;99298.63;5031889;28;20099;-92
2022/10/20 09:54:19;;;;;;;25.38;2.95;;;;;;;13.57;100.00;99294.75;5041098;28;20028;-92
2022/10/20 09:56:48;;;;;;;32.22;3.50;;;;;;;13.55;100.00;99290.69;5027704;28;20023;-94
2022/10/20 09:59:43;;;;;;;30.70;3.05;;;;;;;13.56;100.00;99292.31;5029464;28;20059;-92
2022/10/20 10:02:12;;;;;;;15.45;2.40;;;;;;;13.60;100.00;99286.41;5031013;28;20120;-92
2022/10/20 10:04:43;;;;;;;17.33;2.30;;;;;;;13.60;100.00;99280.31;5038878;28;20036;-92
2022/10/20 10:07:42;;;;;;;22.08;3.05;;;;;;;13.62;100.00;99288.88;5025741;28;20544;-91
2022/10/20 10:10:16;;;;;;;29.30;3.13;;;;;;;13.75;100.00;99286.34;4993898;28;20040;-92
2022/10/20 10:12:50;;;;;;;24.15;3.30;;;;;;;13.84;100.00;99284.34;5035753;28;20044;-93
2022/10/20 10:15:24;;;;;;;17.10;2.53;;;;;;;13.97;100.00;99280.94;4981952;28;20076;-92
2022/10/20 10:17:50;;;;;;;19.27;2.88;;;;;;;14.12;100.00;99280.00;4982675;28;20045;-92
2022/10/20 10:20:16;;;;;;;25.70;3.65;;;;;;;14.20;100.00;99281.66;5003936;28;20040;-92
2022/10/20 10:22:42;;;;;;;20.75;2.78;;;;;;;14.24;100.00;99277.59;5002451;28;20052;-92
2022/10/20 10:25:25;;;;;;;25.17;3.38;;;;;;;14.30;100.00;99282.13;5018039;28;20135;-91
2022/10/20 10:28:05;;;;;;;29.27;4.03;;;;;;;14.29;100.00;99277.00;4998164;28;20175;-91
2022/10/20 10:31:31;;;;;;;23.20;3.53;;;;;;;14.24;100.00;99272.28;4995169;28;20044;-92
2022/10/20 10:34:20;;;;;;;26.95;3.55;;;;;;;14.26;100.00;99279.06;5012067;28;20029;-93
2022/10/20 10:36:45;;;;;;;31.33;4.15;;;;;;;14.31;100.00;99278.47;4970903;28;20748;-91
2022/10/20 10:39:14;;;;;;;22.55;3.30;;;;;;;14.39;100.00;99272.97;4994036;28;20061;-91
2022/10/20 10:41:51;;;;;;;31.63;4.15;;;;;;;14.43;100.00;99256.63;4998848;28;20033;-91
2022/10/20 10:44:42;;;;;;;30.38;4.15;;;;;;;14.47;100.00;99257.84;4990918;28;20044;-90
2022/10/20 10:47:33;;;;;;;21.13;3.47;;;;;;;14.61;100.00;99256.88;4998992;28;20133;-90
2022/10/20 10:50:25;;;;;;;25.90;4.22;;;;;;;14.62;100.00;99252.41;4998667;28;20033;-92
2022/10/20 10:53:05;;;;;;;25.42;4.00;;;;;;;14.61;100.00;99256.06;5008055;28;20042;-92
2022/10/20 10:55:55;;;;;;;24.73;4.00;;;;;;;14.70;100.00;99243.41;5003654;28;20033;-91
2022/10/20 10:58:43;;;;;;;23.75;3.88;;;;;;;14.86;100.00;99242.22;5008222;28;20038;-92
2022/10/20 11:01:24;;;;;;;31.77;4.35;;;;;;;14.94;100.00;99241.22;5008955;28;20045;-91
2022/10/20 11:04:06;;;;;;;19.63;3.35;;;;;;;14.89;100.00;99241.84;5009425;28;20106;-91
2022/10/20 11:06:38;;;;;;;31.70;3.47;;;;;;;14.87;100.00;99247.34;5007888;28;20120;-91
2022/10/20 11:09:26;;;;;;;22.70;4.30;;;;;;;15.00;100.00;99235.91;4991686;28;20038;-91
2022/10/20 11:12:25;;;;;;;24.63;3.67;;;;;;;15.19;100.00;99235.31;5006810;28;20104;-91
2022/10/20 11:14:58;;;;;;;24.98;3.53;;;;;;;15.33;100.00;99241.44;5005501;28;20125;-92
2022/10/20 11:17:47;;;;;;;27.38;3.45;;;;;;;15.27;100.00;99239.59;5018882;28;20054;-95
2022/10/20 11:20:39;;;;;;;27.80;4.22;;;;;;;15.22;100.00;99240.22;5008012;28;20120;-93
2022/10/20 11:23:42;;;;;;;34.88;4.32;;;;;;;15.16;100.00;99233.84;5006552;28;20478;-92
2022/10/20 11:26:21;;;;;;;20.38;4.22;;;;;;;15.23;100.00;99233.84;5035677;28;20310;-93
2022/10/20 11:28:53;;;;;;;26.63;3.53;;;;;;;15.37;100.00;99229.34;4990436;28;20057;-94
2022/10/20 11:31:56;;;;;;;33.75;3.97;;;;;;;15.40;100.00;99228.13;5011270;28;20101;-94
2022/10/20 11:34:37;;;;;;;19.95;3.65;;;;;;;15.27;100.00;99227.13;5006615;28;20034;-93